createdAt,value
2019-06-07T00:00:38.084Z,25.35
2019-06-07T00:03:36.568Z,24.47
2019-06-07T00:06:43.010Z,24.82
2019-06-07T00:09:49.545Z,26.17
2019-06-07T00:12:56.142Z,26.50
2019-06-07T00:16:02.735Z,28.17
2019-06-07T00:19:09.656Z,25.02
2019-06-07T00:22:28.577Z,25.27
2019-06-07T00:25:24.747Z,30.60
2019-06-07T00:28:31.495Z,25.90
2019-06-07T00:31:37.895Z,25.30
2019-06-07T00:34:44.498Z,25.45
2019-06-07T00:37:50.947Z,26.00
2019-06-07T00:40:57.405Z,24.07
2019-06-07T00:44:03.872Z,25.45
2019-06-07T00:47:10.691Z,24.02
2019-06-07T00:50:21.901Z,27.07
2019-06-07T00:53:32.062Z,24.25
2019-06-07T00:56:35.615Z,27.93
2019-06-07T00:59:42.179Z,25.97
2019-06-07T01:02:49.493Z,24.77
2019-06-07T01:05:55.879Z,25.40
2019-06-07T01:09:02.272Z,25.62
2019-06-07T01:12:10.367Z,25.97
2019-06-07T01:15:22.209Z,27.65
2019-06-07T01:18:41.169Z,25.08
2019-06-07T01:21:37.032Z,24.75
2019-06-07T01:24:43.526Z,29.98
2019-06-07T01:27:50.229Z,33.28
2019-06-07T01:30:56.711Z,28.40
2019-06-07T01:34:03.097Z,28.92
2019-06-07T01:37:09.663Z,30.20
2019-06-07T01:40:17.174Z,27.67
2019-06-07T01:43:28.190Z,30.20
2019-06-07T01:46:32.997Z,24.30
2019-06-07T01:49:39.392Z,30.57
2019-06-07T01:52:45.849Z,27.75
2019-06-07T01:55:52.338Z,26.27
2019-06-07T01:58:58.780Z,25.00
2019-06-07T02:02:05.506Z,31.33
2019-06-07T02:05:12.283Z,28.42
2019-06-07T02:08:20.109Z,27.35
2019-06-07T02:11:31.917Z,32.00
2019-06-07T02:14:37.805Z,29.90
2019-06-07T02:17:44.272Z,25.88
2019-06-07T02:20:51.812Z,28.12
2019-06-07T02:23:58.210Z,28.45
2019-06-07T02:27:04.755Z,28.02
2019-06-07T02:33:24.180Z,26.60
2019-06-07T02:36:41.020Z,28.50
2019-06-07T02:39:42.501Z,31.90
2019-06-07T02:42:48.990Z,28.00
2019-06-07T02:45:55.509Z,31.97
2019-06-07T02:49:01.938Z,27.02
2019-06-07T02:52:08.439Z,28.47
2019-06-07T02:55:15.940Z,28.45
2019-06-07T02:58:26.138Z,27.67
2019-06-07T03:01:38.679Z,27.67
2019-06-07T03:04:44.748Z,30.32
2019-06-07T03:07:50.681Z,25.12
2019-06-07T03:10:58.005Z,32.00
2019-06-07T03:14:05.525Z,32.10
2019-06-07T03:17:30.456Z,24.43
2019-06-07T03:20:36.860Z,30.23
2019-06-07T03:23:45.113Z,36.38
2019-06-07T03:29:59.971Z,29.12
2019-06-07T03:33:06.378Z,30.15
2019-06-07T03:36:23.348Z,31.00
2019-06-07T03:39:22.054Z,28.47
2019-06-07T03:42:29.219Z,34.27
2019-06-07T03:45:40.916Z,25.30
2019-06-07T03:48:44.002Z,29.00
2019-06-07T03:51:50.509Z,38.08
2019-06-07T03:54:57.978Z,27.17
2019-06-07T04:01:12.799Z,34.65
2019-06-07T04:04:19.507Z,27.35
2019-06-07T04:07:26.019Z,29.02
2019-06-07T04:10:48.295Z,29.55
2019-06-07T04:13:42.965Z,34.75
2019-06-07T04:16:49.213Z,28.75
2019-06-07T04:19:55.649Z,34.10
2019-06-07T04:23:02.150Z,30.15
2019-06-07T04:26:09.582Z,36.30
2019-06-07T04:29:41.249Z,33.20
2019-06-07T04:32:25.938Z,33.55
2019-06-07T04:35:34.396Z,34.60
2019-06-07T04:38:42.612Z,36.28
2019-06-07T04:41:51.434Z,29.32
2019-06-07T04:44:59.743Z,31.15
2019-06-07T04:48:08.294Z,33.88
2019-06-07T04:51:17.110Z,32.60
2019-06-07T04:54:23.727Z,31.57
2019-06-07T04:57:33.477Z,31.35
2019-06-07T05:00:52.826Z,29.37
2019-06-07T05:03:47.332Z,33.92
2019-06-07T05:06:55.357Z,35.38
2019-06-07T05:10:01.962Z,39.83
2019-06-07T05:13:08.475Z,40.08
2019-06-07T05:16:15.153Z,32.60
2019-06-07T05:19:24.347Z,36.77
2019-06-07T05:22:31.697Z,32.23
2019-06-07T05:25:43.072Z,31.25
2019-06-07T05:28:47.211Z,27.70
2019-06-07T05:31:54.072Z,37.28
2019-06-07T05:35:00.614Z,32.73
2019-06-07T05:38:08.024Z,36.08
2019-06-07T05:41:15.618Z,32.33
2019-06-07T05:44:24.921Z,31.37
2019-06-07T05:47:31.787Z,33.95
2019-06-07T05:50:48.660Z,36.00
2019-06-07T05:53:46.578Z,33.33
2019-06-07T05:56:53.010Z,35.13
2019-06-07T06:00:02.623Z,38.35
2019-06-07T06:03:09.246Z,27.75
2019-06-07T06:06:15.675Z,39.40
2019-06-07T06:09:25.257Z,41.53
2019-06-07T06:12:35.522Z,39.88
2019-06-07T06:15:51.600Z,40.98
2019-06-07T06:18:49.227Z,30.70
2019-06-07T06:21:55.797Z,31.77
2019-06-07T06:25:30.728Z,44.25
2019-06-07T06:28:12.947Z,37.42
2019-06-07T06:31:22.049Z,33.42
2019-06-07T06:34:28.448Z,33.58
2019-06-07T06:37:34.949Z,43.50
2019-06-07T06:40:45.023Z,36.17
2019-06-07T06:43:52.614Z,36.15
2019-06-07T06:46:59.298Z,38.13
2019-06-07T06:50:07.788Z,38.05
2019-06-07T06:53:14.236Z,36.03
2019-06-07T06:56:21.738Z,44.15
2019-06-07T06:59:38.885Z,35.08
2019-06-07T07:03:27.019Z,39.35
2019-06-07T07:05:49.784Z,39.98
2019-06-07T07:08:54.998Z,31.68
2019-06-07T07:12:12.345Z,29.00
2019-06-07T07:15:13.232Z,34.60
2019-06-07T07:18:19.674Z,37.03
2019-06-07T07:21:26.080Z,30.92
2019-06-07T07:24:32.561Z,40.50
2019-06-07T07:27:39.080Z,44.83
2019-06-07T07:30:52.570Z,40.92
2019-06-07T07:34:30.262Z,36.90
2019-06-07T07:37:05.228Z,37.73
2019-06-07T07:40:55.559Z,36.63
2019-06-07T07:43:20.327Z,38.08
2019-06-07T07:46:29.841Z,34.30
2019-06-07T07:49:34.941Z,36.73
2019-06-07T07:52:45.831Z,36.83
2019-06-07T07:55:54.962Z,41.83
2019-06-07T07:59:01.992Z,38.25
2019-06-07T08:02:08.478Z,35.78
2019-06-07T08:05:23.475Z,31.85
2019-06-07T08:08:25.546Z,29.63
2019-06-07T08:11:31.978Z,32.30
2019-06-07T08:14:38.509Z,35.38
2019-06-07T08:17:47.081Z,33.13
2019-06-07T08:21:17.248Z,26.27
2019-06-07T08:24:04.646Z,30.80
2019-06-07T08:27:25.267Z,30.70
2019-06-07T08:33:27.197Z,43.00
2019-06-07T08:36:41.819Z,33.15
2019-06-07T08:39:45.185Z,24.77
2019-06-07T08:43:10.277Z,31.62
2019-06-07T08:46:06.445Z,35.70
2019-06-07T08:49:07.991Z,30.17
2019-06-07T08:52:14.338Z,30.55
2019-06-07T08:55:20.907Z,30.88
2019-06-07T08:58:27.297Z,28.47
2019-06-07T09:01:33.719Z,28.90
2019-06-07T09:04:40.245Z,28.40
2019-06-07T09:07:46.830Z,27.90
2019-06-07T09:10:54.967Z,29.02
2019-06-07T09:14:05.342Z,26.75
2019-06-07T09:17:12.288Z,26.07
2019-06-07T09:20:35.916Z,31.33
2019-06-07T09:23:26.993Z,26.68
2019-06-07T09:26:36.695Z,40.10
2019-06-07T09:29:44.288Z,31.20
2019-06-07T09:32:50.772Z,30.17
2019-06-07T09:36:01.555Z,29.48
2019-06-07T09:39:12.344Z,35.33
2019-06-07T09:42:16.775Z,26.85
2019-06-07T09:45:23.308Z,29.82
2019-06-07T09:51:38.025Z,30.25
2019-06-07T09:57:52.634Z,27.80
2019-06-07T10:01:00.150Z,28.92
2019-06-07T10:04:16.731Z,30.65
2019-06-07T10:07:30.860Z,34.18
2019-06-07T10:13:32.667Z,29.12
2019-06-07T10:16:46.787Z,27.62
2019-06-07T10:19:47.342Z,29.15
2019-06-07T10:22:53.897Z,27.98
2019-06-07T10:26:01.535Z,30.00
2019-06-07T10:29:09.088Z,29.87
2019-06-07T10:32:17.280Z,25.37
2019-06-07T10:35:23.823Z,24.10
2019-06-07T10:38:30.229Z,30.37
2019-06-07T10:41:36.903Z,24.52
2019-06-07T10:44:43.275Z,24.43
2019-06-07T10:47:49.694Z,25.25
2019-06-07T10:50:56.120Z,23.55
2019-06-07T10:54:10.692Z,23.73
2019-06-07T10:57:14.592Z,23.92
2019-06-07T11:00:20.070Z,21.35
2019-06-07T11:03:26.557Z,23.95
2019-06-07T11:06:33.014Z,25.72
2019-06-07T11:09:39.494Z,25.02
2019-06-07T11:13:12.384Z,21.70
2019-06-07T11:16:19.277Z,24.72
2019-06-07T11:19:25.755Z,23.83
2019-06-07T11:22:32.153Z,21.52
2019-06-07T11:25:38.525Z,23.62
2019-06-07T11:28:44.923Z,21.45
2019-06-07T11:31:54.355Z,23.42
2019-06-07T11:35:00.751Z,21.80
2019-06-07T11:38:08.290Z,25.23
2019-06-07T11:41:15.690Z,21.10
2019-06-07T11:44:23.199Z,22.77
2019-06-07T11:47:29.382Z,21.77
2019-06-07T11:50:35.605Z,25.13
2019-06-07T11:53:42.133Z,22.37
2019-06-07T11:56:49.988Z,20.87
2019-06-07T11:59:56.143Z,23.53
2019-06-07T12:03:02.294Z,22.20
2019-06-07T12:06:14.952Z,21.90
2019-06-07T12:09:22.604Z,20.30
2019-06-07T12:12:28.699Z,22.47
2019-06-07T12:15:34.826Z,22.33
2019-06-07T12:18:41.250Z,22.80
2019-06-07T12:21:48.521Z,21.53
2019-06-07T12:24:54.898Z,21.68
2019-06-07T12:28:01.005Z,22.53
2019-06-07T12:31:07.182Z,23.87
2019-06-07T12:34:13.408Z,22.17
2019-06-07T12:37:22.815Z,24.17
2019-06-07T12:40:32.217Z,22.00
2019-06-07T12:43:34.307Z,22.83
2019-06-07T12:46:40.688Z,21.37
2019-06-07T12:49:46.890Z,23.00
2019-06-07T12:52:53.102Z,22.23
2019-06-07T12:56:00.893Z,21.30
2019-06-07T12:59:08.637Z,21.70
2019-06-07T13:02:16.227Z,22.97
2019-06-07T13:05:23.867Z,24.80
2019-06-07T13:08:30.946Z,22.63
2019-06-07T13:11:42.674Z,20.37
2019-06-07T13:14:49.766Z,21.17
2019-06-07T13:17:58.734Z,22.87
2019-06-07T13:21:04.998Z,22.90
2019-06-07T13:24:11.333Z,21.37
2019-06-07T13:27:18.286Z,21.10
2019-06-07T13:30:25.631Z,21.60
2019-06-07T13:33:37.352Z,21.20
2019-06-07T13:36:40.167Z,21.03
2019-06-07T13:39:46.271Z,21.53
2019-06-07T13:42:52.604Z,21.87
2019-06-07T13:45:59.019Z,22.30
2019-06-07T13:49:06.050Z,20.63
2019-06-07T13:52:12.318Z,20.33
2019-06-07T13:55:21.842Z,23.23
2019-06-07T13:58:28.758Z,22.43
2019-06-07T14:01:35.033Z,24.10
2019-06-07T14:04:41.205Z,22.43
2019-06-07T14:07:48.406Z,22.40
2019-06-07T14:10:55.863Z,32.27
2019-06-07T14:14:02.072Z,25.47
2019-06-07T14:17:09.204Z,21.50
2019-06-07T14:20:16.154Z,21.37
2019-06-07T14:23:39.152Z,20.83
2019-06-07T14:26:32.526Z,21.13
2019-06-07T14:29:39.087Z,25.10
2019-06-07T14:32:45.215Z,23.53
2019-06-07T14:35:51.408Z,23.83
2019-06-07T14:38:57.716Z,21.30
2019-06-07T14:42:09.990Z,22.17
2019-06-07T14:45:15.098Z,28.10
2019-06-07T14:48:21.215Z,21.63
2019-06-07T14:51:28.644Z,22.77
2019-06-07T14:54:38.848Z,23.03
2019-06-07T14:57:43.008Z,23.37
2019-06-07T15:00:49.226Z,35.80
2019-06-07T15:03:55.487Z,23.30
2019-06-07T15:07:01.633Z,21.57
2019-06-07T15:10:12.194Z,21.87
2019-06-07T15:13:18.290Z,23.63
2019-06-07T15:16:24.418Z,22.77
2019-06-07T15:19:31.167Z,21.97
2019-06-07T15:22:38.781Z,23.30
2019-06-07T15:25:45.736Z,25.37
2019-06-07T15:28:52.048Z,22.80
2019-06-07T15:31:58.326Z,22.57
2019-06-07T15:35:06.428Z,21.93
2019-06-07T15:38:12.535Z,23.60
2019-06-07T15:41:18.804Z,21.60
2019-06-07T15:44:24.935Z,21.83
2019-06-07T15:47:31.714Z,22.70
2019-06-07T15:50:38.451Z,21.30
2019-06-07T15:53:45.022Z,22.53
2019-06-07T15:56:51.297Z,24.60
2019-06-07T15:59:57.529Z,21.43
2019-06-07T16:03:05.195Z,22.63
2019-06-07T16:10:53.468Z,22.40
2019-06-07T16:13:59.590Z,22.37
2019-06-07T16:17:08.359Z,26.70
2019-06-07T16:20:15.241Z,26.43
2019-06-07T16:23:21.486Z,22.43
2019-06-07T16:26:27.582Z,24.73
2019-06-07T16:29:34.555Z,23.53
2019-06-07T16:32:41.762Z,24.20
2019-06-07T16:35:48.506Z,21.87
2019-06-07T16:38:54.889Z,21.57
2019-06-07T16:42:01.022Z,21.87
2019-06-07T16:45:07.769Z,24.03
2019-06-07T16:48:14.170Z,25.10
2019-06-07T16:51:20.296Z,24.67
2019-06-07T16:54:26.785Z,22.80
2019-06-07T16:57:32.955Z,24.60
2019-06-07T17:00:40.541Z,22.77
2019-06-07T17:03:47.635Z,23.47
2019-06-07T17:06:53.945Z,26.93
2019-06-07T17:10:00.054Z,22.50
2019-06-07T17:13:08.560Z,23.60
2019-06-07T17:16:15.026Z,22.23
2019-06-07T17:19:21.159Z,23.27
2019-06-07T17:22:27.368Z,22.57
2019-06-07T17:25:33.717Z,24.37
2019-06-07T17:28:40.094Z,22.83
2019-06-07T17:31:46.487Z,26.23
2019-06-07T17:34:53.609Z,25.40
2019-06-07T17:37:59.808Z,22.80
2019-06-07T17:41:09.326Z,23.20
2019-06-07T17:44:15.739Z,23.70
2019-06-07T17:47:23.609Z,30.23
2019-06-07T17:50:30.075Z,25.12
2019-06-07T17:53:36.446Z,23.77
2019-06-07T17:56:44.336Z,23.42
2019-06-07T17:59:51.145Z,23.57
2019-06-07T18:02:58.614Z,25.40
2019-06-07T18:06:07.427Z,23.30
2019-06-07T18:09:14.527Z,24.05
2019-06-07T18:12:20.974Z,25.57
2019-06-07T18:15:41.159Z,23.85
2019-06-07T18:18:50.682Z,24.85
2019-06-07T18:21:58.919Z,23.12
2019-06-07T18:26:26.831Z,23.83
2019-06-07T18:29:55.089Z,26.97
2019-06-07T18:33:01.506Z,21.93
2019-06-07T18:36:09.649Z,23.50
2019-06-07T18:39:16.092Z,22.55
2019-06-07T18:42:23.324Z,23.32
2019-06-07T18:45:29.979Z,29.30
2019-06-07T18:48:36.547Z,23.92
2019-06-07T18:51:44.579Z,25.62
2019-06-07T18:54:51.061Z,23.70
2019-06-07T18:57:59.319Z,25.40
2019-06-07T19:01:06.582Z,22.75
2019-06-07T19:04:12.946Z,24.90
2019-06-07T19:07:19.402Z,24.77
2019-06-07T19:10:26.650Z,23.07
2019-06-07T19:13:33.051Z,24.85
2019-06-07T19:16:39.515Z,26.90
2019-06-07T19:19:46.090Z,25.25
2019-06-07T19:22:52.572Z,24.10
2019-06-07T19:26:00.648Z,22.67
2019-06-07T19:29:07.869Z,25.40
2019-06-07T19:32:14.299Z,22.58
2019-06-07T19:35:21.294Z,24.70
2019-06-07T19:38:29.008Z,24.60
2019-06-07T19:41:35.806Z,26.17
2019-06-07T19:44:53.073Z,26.35
2019-06-07T19:47:50.296Z,22.00
2019-06-07T19:50:56.917Z,22.85
2019-06-07T19:54:05.120Z,26.27
2019-06-07T19:57:12.060Z,24.75
2019-06-07T20:00:20.622Z,23.38
2019-06-07T20:03:26.990Z,28.27
2019-06-07T20:06:33.444Z,24.67
2019-06-07T20:09:39.906Z,23.02
2019-06-07T20:12:46.464Z,26.85
2019-06-07T20:15:54.670Z,24.45
2019-06-07T20:19:03.517Z,22.40
2019-06-07T20:22:09.604Z,29.20
2019-06-07T20:25:16.340Z,25.85
2019-06-07T20:28:23.105Z,26.30
2019-06-07T20:31:29.597Z,24.90
2019-06-07T20:34:36.145Z,24.75
2019-06-07T20:37:42.664Z,24.32
2019-06-07T20:40:49.128Z,24.05
2019-06-07T20:43:55.535Z,24.43
2019-06-07T20:47:02.216Z,22.62
2019-06-07T20:50:09.094Z,21.23
2019-06-07T20:53:15.622Z,23.25
2019-06-07T20:56:24.593Z,23.45
2019-06-07T20:59:30.541Z,24.05
2019-06-07T21:02:38.091Z,23.98
2019-06-07T21:05:45.693Z,24.47
2019-06-07T21:08:52.099Z,29.40
2019-06-07T21:11:59.821Z,26.60
2019-06-07T21:15:11.858Z,22.98
2019-06-07T21:18:19.408Z,23.18
2019-06-07T21:21:24.081Z,22.45
2019-06-07T21:24:30.971Z,26.23
2019-06-07T21:27:37.402Z,22.17
2019-06-07T21:30:43.911Z,23.73
2019-06-07T21:33:50.325Z,24.67
2019-06-07T21:36:57.208Z,24.25
2019-06-07T21:40:04.206Z,23.32
2019-06-07T21:43:11.003Z,23.18
2019-06-07T21:46:20.416Z,23.85
2019-06-07T21:49:25.752Z,25.27
2019-06-07T21:52:32.241Z,22.10
2019-06-07T21:55:38.664Z,22.27
2019-06-07T21:58:45.161Z,23.25
2019-06-07T22:01:51.726Z,24.07
2019-06-07T22:04:58.383Z,23.77
2019-06-07T22:08:06.014Z,23.62
2019-06-07T22:11:12.587Z,24.85
2019-06-07T22:14:21.093Z,25.92
2019-06-07T22:17:27.457Z,20.85
2019-06-07T22:20:35.149Z,23.75
2019-06-07T22:23:43.778Z,29.10
2019-06-07T22:26:49.953Z,25.27
2019-06-07T22:29:56.416Z,23.95
2019-06-07T22:33:04.295Z,23.22
2019-06-07T22:36:11.124Z,21.95
2019-06-07T22:39:17.906Z,24.65
2019-06-07T22:42:24.475Z,23.57
2019-06-07T22:45:30.994Z,24.27
2019-06-07T22:48:37.484Z,23.65
2019-06-07T22:51:43.985Z,21.57
2019-06-07T22:54:50.461Z,24.23
2019-06-07T22:57:58.642Z,21.57
2019-06-07T23:01:05.088Z,22.20
2019-06-07T23:04:12.509Z,21.82
2019-06-07T23:07:19.331Z,21.48
2019-06-07T23:10:26.096Z,23.02
2019-06-07T23:13:32.499Z,21.60
2019-06-07T23:16:54.200Z,20.90
2019-06-07T23:19:48.242Z,22.67
2019-06-07T23:22:54.725Z,19.62
2019-06-07T23:26:01.104Z,20.92
2019-06-07T23:29:10.215Z,20.90
2019-06-07T23:32:16.884Z,20.92
2019-06-07T23:35:23.292Z,19.48
2019-06-07T23:38:29.684Z,23.92
2019-06-07T23:41:36.240Z,19.57
2019-06-07T23:44:42.610Z,19.80
2019-06-07T23:47:49.020Z,20.08
2019-06-07T23:50:55.387Z,21.00
2019-06-07T23:54:01.811Z,19.60
2019-06-07T23:57:08.725Z,20.40
